Time;durP1;ratioP1;P1;durP2;ratioP2;P2;SDS_P1;SDS_P2;PMS_P1;PMS_P2;Temp;Humidity;BMP_temperature;BMP_pressure;BME280_temperature;BME280_humidity;BME280_pressure;Samples;Min_cycle;Max_cycle;Signal;HPM_P1;HPM_P2
2024/02/15 00:02:24;;;;;;;140.30;65.50;;;;;;;-128.00;-1.00;-1.00;104406;1253;1003896;-78
2024/02/15 00:04:51;;;;;;;125.70;59.80;;;;;;;-128.00;-1.00;-1.00;103144;1253;1003792;-78
2024/02/15 00:07:22;;;;;;;120.50;55.80;;;;;;;-128.00;-1.00;-1.00;103152;1253;1004180;-78
2024/02/15 00:09:48;;;;;;;122.60;55.60;;;;;;;-128.00;-1.00;-1.00;103151;1254;1062548;-78
2024/02/15 00:12:15;;;;;;;107.10;50.90;;;;;;;-128.00;-1.00;-1.00;103138;1253;1005143;-78
2024/02/15 00:14:42;;;;;;;122.10;54.30;;;;;;;-128.00;-1.00;-1.00;103154;1253;1004612;-78
2024/02/15 00:17:09;;;;;;;105.10;52.30;;;;;;;-128.00;-1.00;-1.00;103208;1253;1005227;-78
2024/02/15 00:19:36;;;;;;;113.30;55.00;;;;;;;-128.00;-1.00;-1.00;103277;1253;1004391;-78
2024/02/15 00:22:02;;;;;;;113.20;57.10;;;;;;;-128.00;-1.00;-1.00;103253;1253;1004229;-78
2024/02/15 00:24:30;;;;;;;128.70;60.80;;;;;;;-128.00;-1.00;-1.00;103942;1253;1004306;-79
2024/02/15 00:26:57;;;;;;;128.30;60.50;;;;;;;-128.00;-1.00;-1.00;105604;1253;1060310;-79
2024/02/15 00:29:24;;;;;;;122.50;60.20;;;;;;;-128.00;-1.00;-1.00;103990;1253;1004175;-79
2024/02/15 00:31:51;;;;;;;117.20;59.50;;;;;;;-128.00;-1.00;-1.00;105588;1253;1004695;-78
2024/02/15 00:34:17;;;;;;;132.50;64.60;;;;;;;-128.00;-1.00;-1.00;105571;1253;1003959;-78
2024/02/15 00:36:44;;;;;;;142.20;72.00;;;;;;;-128.00;-1.00;-1.00;105618;1253;1003599;-79
2024/02/15 00:39:11;;;;;;;135.50;66.50;;;;;;;-128.00;-1.00;-1.00;105547;1253;1004333;-79
2024/02/15 00:41:41;;;;;;;131.30;63.90;;;;;;;-128.00;-1.00;-1.00;105572;1253;1005084;-79
2024/02/15 00:44:11;;;;;;;126.20;60.00;;;;;;;-128.00;-1.00;-1.00;105565;1253;1046701;-79
2024/02/15 00:46:38;;;;;;;126.60;61.20;;;;;;;-128.00;-1.00;-1.00;105453;1253;1061835;-79
2024/02/15 00:49:06;;;;;;;133.90;64.50;;;;;;;-128.00;-1.00;-1.00;105590;1253;1004269;-78
2024/02/15 00:51:35;;;;;;;126.60;61.10;;;;;;;-128.00;-1.00;-1.00;105572;1253;1003658;-78
2024/02/15 00:54:02;;;;;;;119.10;60.00;;;;;;;-128.00;-1.00;-1.00;105567;1253;1046121;-78
2024/02/15 00:56:29;;;;;;;120.80;59.30;;;;;;;-128.00;-1.00;-1.00;105501;1253;1004065;-78
2024/02/15 00:58:56;;;;;;;114.70;56.50;;;;;;;-128.00;-1.00;-1.00;105574;1253;1005123;-78
2024/02/15 01:01:23;;;;;;;127.30;63.00;;;;;;;-128.00;-1.00;-1.00;105568;1253;1004728;-78
2024/02/15 01:03:49;;;;;;;124.00;58.40;;;;;;;-128.00;-1.00;-1.00;105566;1253;1004078;-78
2024/02/15 01:06:17;;;;;;;123.40;57.10;;;;;;;-128.00;-1.00;-1.00;103701;1252;1004122;-78
2024/02/15 01:08:43;;;;;;;125.00;61.90;;;;;;;-128.00;-1.00;-1.00;103351;1253;1004505;-78
2024/02/15 01:11:10;;;;;;;127.80;65.50;;;;;;;-128.00;-1.00;-1.00;103222;1253;1004263;-79
2024/02/15 01:13:36;;;;;;;129.50;63.70;;;;;;;-128.00;-1.00;-1.00;103298;1253;1004322;-79
2024/02/15 01:16:04;;;;;;;121.20;57.40;;;;;;;-128.00;-1.00;-1.00;103280;1253;1003354;-78
2024/02/15 01:18:31;;;;;;;126.00;61.60;;;;;;;-128.00;-1.00;-1.00;103058;1252;1004219;-78
2024/02/15 01:20:58;;;;;;;135.10;65.20;;;;;;;-128.00;-1.00;-1.00;103092;1253;1004587;-79
2024/02/15 01:23:25;;;;;;;132.50;65.70;;;;;;;-128.00;-1.00;-1.00;103122;1253;1004281;-78
2024/02/15 01:25:52;;;;;;;121.20;59.50;;;;;;;-128.00;-1.00;-1.00;103038;1253;1005189;-79
2024/02/15 01:28:19;;;;;;;125.60;66.20;;;;;;;-128.00;-1.00;-1.00;103269;1253;1004982;-79
2024/02/15 01:30:46;;;;;;;107.70;54.30;;;;;;;-128.00;-1.00;-1.00;103064;1253;1004438;-79
2024/02/15 01:33:13;;;;;;;110.40;55.20;;;;;;;-128.00;-1.00;-1.00;102991;1253;1005072;-78
2024/02/15 01:35:40;;;;;;;113.30;55.70;;;;;;;-128.00;-1.00;-1.00;103006;1253;1004059;-78
2024/02/15 01:38:06;;;;;;;96.70;46.90;;;;;;;-128.00;-1.00;-1.00;103007;1251;1004284;-78
2024/02/15 01:40:33;;;;;;;98.70;48.80;;;;;;;-128.00;-1.00;-1.00;103255;1253;1005059;-79
2024/02/15 01:43:00;;;;;;;101.60;52.50;;;;;;;-128.00;-1.00;-1.00;103315;1253;1006253;-79
2024/02/15 01:45:28;;;;;;;95.10;47.40;;;;;;;-128.00;-1.00;-1.00;105619;1252;1003911;-78
2024/02/15 01:47:54;;;;;;;90.20;44.70;;;;;;;-128.00;-1.00;-1.00;105590;1253;1003623;-79
2024/02/15 01:50:21;;;;;;;91.70;46.40;;;;;;;-128.00;-1.00;-1.00;105661;1252;1004116;-79
2024/02/15 01:52:48;;;;;;;79.40;38.10;;;;;;;-128.00;-1.00;-1.00;105209;1252;1004923;-79
2024/02/15 01:55:15;;;;;;;78.20;39.90;;;;;;;-128.00;-1.00;-1.00;103052;1255;1005020;-78
2024/02/15 01:57:48;;;;;;;74.90;37.40;;;;;;;-128.00;-1.00;-1.00;102959;1252;1003760;-79
2024/02/15 02:00:17;;;;;;;63.20;35.20;;;;;;;-128.00;-1.00;-1.00;103130;1252;1062392;-78
2024/02/15 02:02:44;;;;;;;78.50;37.30;;;;;;;-128.00;-1.00;-1.00;103224;1252;1057922;-78
2024/02/15 02:05:10;;;;;;;79.70;38.60;;;;;;;-128.00;-1.00;-1.00;102993;1253;1004889;-78
2024/02/15 02:07:37;;;;;;;73.50;39.30;;;;;;;-128.00;-1.00;-1.00;103003;1252;1004230;-79
2024/02/15 02:10:04;;;;;;;69.30;36.10;;;;;;;-128.00;-1.00;-1.00;103014;1253;1004871;-78
2024/02/15 02:12:31;;;;;;;76.70;38.30;;;;;;;-128.00;-1.00;-1.00;103120;1253;1005268;-78
2024/02/15 02:14:57;;;;;;;75.30;37.30;;;;;;;-128.00;-1.00;-1.00;103019;1253;1004672;-78
2024/02/15 02:17:23;;;;;;;78.20;36.90;;;;;;;-128.00;-1.00;-1.00;102974;1253;1004383;-78
2024/02/15 02:19:50;;;;;;;73.80;40.60;;;;;;;-128.00;-1.00;-1.00;103048;1255;1004187;-79
2024/02/15 02:22:19;;;;;;;78.30;40.50;;;;;;;-128.00;-1.00;-1.00;103039;1253;1003930;-78
2024/02/15 02:25:06;;;;;;;84.20;39.20;;;;;;;-128.00;-1.00;-1.00;103007;1253;1063443;-78
2024/02/15 02:27:32;;;;;;;72.40;38.40;;;;;;;-128.00;-1.00;-1.00;103026;1255;1061278;-78
2024/02/15 02:29:59;;;;;;;81.00;40.50;;;;;;;-128.00;-1.00;-1.00;102879;1253;1003822;-78
2024/02/15 02:32:26;;;;;;;87.10;40.00;;;;;;;-128.00;-1.00;-1.00;103011;1255;1005734;-78
2024/02/15 02:34:57;;;;;;;65.00;36.60;;;;;;;-128.00;-1.00;-1.00;105665;1252;1003717;-78
2024/02/15 02:37:24;;;;;;;77.10;38.00;;;;;;;-128.00;-1.00;-1.00;105543;1253;1062211;-78
2024/02/15 02:39:50;;;;;;;70.60;37.00;;;;;;;-128.00;-1.00;-1.00;105638;1253;1004261;-67
2024/02/15 02:42:17;;;;;;;64.70;31.50;;;;;;;-128.00;-1.00;-1.00;105633;1252;1004411;-70
2024/02/15 02:44:44;;;;;;;65.40;30.80;;;;;;;-128.00;-1.00;-1.00;105606;1252;1005058;-72
2024/02/15 02:47:11;;;;;;;73.10;34.20;;;;;;;-128.00;-1.00;-1.00;105682;1252;1004782;-75
2024/02/15 02:49:38;;;;;;;67.80;33.70;;;;;;;-128.00;-1.00;-1.00;104121;1253;1004272;-72
2024/02/15 02:52:04;;;;;;;64.70;30.40;;;;;;;-128.00;-1.00;-1.00;103091;1253;1004038;-73
2024/02/15 02:54:31;;;;;;;63.30;29.80;;;;;;;-128.00;-1.00;-1.00;102982;1252;1004267;-72
2024/02/15 02:56:57;;;;;;;75.80;33.90;;;;;;;-128.00;-1.00;-1.00;103143;1253;1003736;-69
2024/02/15 02:59:25;;;;;;;68.80;30.90;;;;;;;-128.00;-1.00;-1.00;103097;1251;1003946;-64
2024/02/15 03:01:51;;;;;;;58.30;27.70;;;;;;;-128.00;-1.00;-1.00;102593;1253;1003967;-66
2024/02/15 03:04:17;;;;;;;61.00;28.90;;;;;;;-128.00;-1.00;-1.00;102560;1251;1004735;-65
2024/02/15 03:06:44;;;;;;;66.00;33.00;;;;;;;-128.00;-1.00;-1.00;102553;1251;1004861;-65
2024/02/15 03:09:13;;;;;;;60.90;28.20;;;;;;;-128.00;-1.00;-1.00;102573;1253;1004617;-68
2024/02/15 03:11:40;;;;;;;71.10;33.30;;;;;;;-128.00;-1.00;-1.00;102611;1253;1048249;-72
2024/02/15 03:14:06;;;;;;;64.70;30.00;;;;;;;-128.00;-1.00;-1.00;103842;1251;1004753;-67
2024/02/15 03:16:35;;;;;;;65.30;34.10;;;;;;;-128.00;-1.00;-1.00;105624;1252;1004993;-67
2024/02/15 03:19:05;;;;;;;62.70;32.30;;;;;;;-128.00;-1.00;-1.00;105629;1252;1059805;-68
2024/02/15 03:21:31;;;;;;;;;;;;;;;-128.00;-1.00;-1.00;105670;1252;1045970;-67
2024/02/15 03:23:59;;;;;;;54.30;28.70;;;;;;;-128.00;-1.00;-1.00;105669;1252;1005059;-69
2024/02/15 03:26:31;;;;;;;61.20;30.40;;;;;;;-128.00;-1.00;-1.00;105655;1252;1003512;-69
2024/02/15 03:28:57;;;;;;;60.90;28.40;;;;;;;-128.00;-1.00;-1.00;105594;1252;1057150;-65
2024/02/15 03:31:23;;;;;;;57.80;29.80;;;;;;;-128.00;-1.00;-1.00;105626;1251;1004019;-65
2024/02/15 03:33:50;;;;;;;55.90;29.10;;;;;;;-128.00;-1.00;-1.00;105651;1253;1003490;-66
2024/02/15 03:36:19;;;;;;;50.70;27.30;;;;;;;-128.00;-1.00;-1.00;105664;1252;1003430;-66
2024/02/15 03:38:46;;;;;;;52.50;28.60;;;;;;;-128.00;-1.00;-1.00;103199;1253;1062524;-65
2024/02/15 03:41:13;;;;;;;61.20;29.90;;;;;;;-128.00;-1.00;-1.00;103017;1252;1006270;-65
2024/02/15 03:43:39;;;;;;;61.90;32.20;;;;;;;-128.00;-1.00;-1.00;105620;1252;1004240;-66
2024/02/15 03:46:08;;;;;;;62.80;32.10;;;;;;;-128.00;-1.00;-1.00;105591;1252;1004401;-66
2024/02/15 03:48:35;;;;;;;55.60;30.00;;;;;;;-128.00;-1.00;-1.00;105593;1252;1046241;-72
2024/02/15 03:51:01;;;;;;;58.70;30.00;;;;;;;-128.00;-1.00;-1.00;105642;1252;1004093;-72
2024/02/15 03:53:30;;;;;;;50.30;26.00;;;;;;;-128.00;-1.00;-1.00;105631;1252;1003751;-67
2024/02/15 03:55:56;;;;;;;60.00;26.60;;;;;;;-128.00;-1.00;-1.00;105631;1252;1059705;-68
2024/02/15 03:58:23;;;;;;;64.20;30.20;;;;;;;-128.00;-1.00;-1.00;105471;1252;1004790;-68
2024/02/15 04:00:49;;;;;;;63.50;32.60;;;;;;;-128.00;-1.00;-1.00;105639;1252;1004442;-68
2024/02/15 04:03:16;;;;;;;61.60;30.10;;;;;;;-128.00;-1.00;-1.00;105637;1252;1003990;-67
2024/02/15 04:06:05;;;;;;;70.90;30.80;;;;;;;-128.00;-1.00;-1.00;105738;1248;1004883;31
2024/02/15 04:08:32;;;;;;;52.20;28.40;;;;;;;-128.00;-1.00;-1.00;101347;1260;1059315;-70
2024/02/15 04:10:59;;;;;;;67.50;31.70;;;;;;;-128.00;-1.00;-1.00;101411;1260;1004601;-69
2024/02/15 04:13:25;;;;;;;61.40;29.70;;;;;;;-128.00;-1.00;-1.00;105067;1259;1004162;-70
2024/02/15 04:15:53;;;;;;;58.90;30.60;;;;;;;-128.00;-1.00;-1.00;105120;1259;1003419;-67
2024/02/15 04:18:19;;;;;;;56.20;30.20;;;;;;;-128.00;-1.00;-1.00;105084;1259;1004596;-68
2024/02/15 04:20:46;;;;;;;56.40;28.80;;;;;;;-128.00;-1.00;-1.00;105110;1259;1004554;-68
2024/02/15 04:23:13;;;;;;;56.60;31.60;;;;;;;-128.00;-1.00;-1.00;105110;1261;1005086;-69
2024/02/15 04:25:40;;;;;;;61.20;31.50;;;;;;;-128.00;-1.00;-1.00;105108;1259;1003685;-70
2024/02/15 04:28:08;;;;;;;64.80;31.70;;;;;;;-128.00;-1.00;-1.00;105147;1259;1004927;-66
2024/02/15 04:30:38;;;;;;;67.80;33.50;;;;;;;-128.00;-1.00;-1.00;105104;1259;1004605;-64
2024/02/15 04:33:08;;;;;;;65.20;32.80;;;;;;;-128.00;-1.00;-1.00;105057;1259;1058140;-72
2024/02/15 04:35:35;;;;;;;56.20;27.90;;;;;;;-128.00;-1.00;-1.00;105025;1259;1045866;-81
2024/02/15 04:38:03;;;;;;;58.00;27.40;;;;;;;-128.00;-1.00;-1.00;104855;1259;1003836;-75
2024/02/15 04:40:30;;;;;;;54.90;27.90;;;;;;;-128.00;-1.00;-1.00;105060;1259;1004325;-84
2024/02/15 04:42:58;;;;;;;50.90;27.10;;;;;;;-128.00;-1.00;-1.00;103332;1259;1004476;-87
2024/02/15 04:45:24;;;;;;;54.80;26.70;;;;;;;-128.00;-1.00;-1.00;105095;1259;1003599;-84
2024/02/15 04:47:52;;;;;;;56.80;27.90;;;;;;;-128.00;-1.00;-1.00;105093;1259;1004552;-86
2024/02/15 04:50:19;;;;;;;50.00;23.70;;;;;;;-128.00;-1.00;-1.00;103766;1259;1004079;-84
2024/02/15 04:52:48;;;;;;;54.20;26.00;;;;;;;-128.00;-1.00;-1.00;102818;1264;1004816;-83
2024/02/15 04:55:15;;;;;;;;;;;;;;;-128.00;-1.00;-1.00;102705;1259;1059232;-85
2024/02/15 04:57:41;;;;;;;50.20;23.20;;;;;;;-128.00;-1.00;-1.00;102706;1260;1004523;-73
2024/02/15 05:00:09;;;;;;;48.30;25.70;;;;;;;-128.00;-1.00;-1.00;102226;1260;1005355;-85
2024/02/15 05:02:40;;;;;;;50.20;24.70;;;;;;;-128.00;-1.00;-1.00;103364;1259;1004204;-86
2024/02/15 05:05:10;;;;;;;49.10;25.40;;;;;;;-128.00;-1.00;-1.00;102673;1260;1061405;-79
2024/02/15 05:07:39;;;;;;;52.40;27.10;;;;;;;-128.00;-1.00;-1.00;102585;1259;1060549;-82
2024/02/15 05:10:09;;;;;;;;;;;;;;;-128.00;-1.00;-1.00;102494;1259;1059396;-81
2024/02/15 05:12:37;;;;;;;46.20;24.10;;;;;;;-128.00;-1.00;-1.00;102899;1259;1046153;-87
2024/02/15 05:15:10;;;;;;;49.80;24.10;;;;;;;-128.00;-1.00;-1.00;102674;1259;1005183;-81
2024/02/15 05:17:43;;;;;;;42.80;25.70;;;;;;;-128.00;-1.00;-1.00;102542;1259;1064253;-88
2024/02/15 05:20:13;;;;;;;46.10;24.40;;;;;;;-128.00;-1.00;-1.00;102984;1259;1057672;-87
2024/02/15 05:22:43;;;;;;;43.60;24.80;;;;;;;-128.00;-1.00;-1.00;103785;1259;1060029;-82
2024/02/15 05:25:12;;;;;;;41.10;23.10;;;;;;;-128.00;-1.00;-1.00;102859;1259;1044900;-82
2024/02/15 05:27:38;;;;;;;42.90;22.00;;;;;;;-128.00;-1.00;-1.00;102810;1264;1005787;-81
2024/02/15 05:30:08;;;;;;;48.70;22.10;;;;;;;-128.00;-1.00;-1.00;103158;1259;1004378;-87
2024/02/15 05:32:41;;;;;;;41.00;21.20;;;;;;;-128.00;-1.00;-1.00;102728;1259;1057991;-87
2024/02/15 05:35:09;;;;;;;35.70;20.90;;;;;;;-128.00;-1.00;-1.00;102416;1266;1061323;-81
2024/02/15 05:37:36;;;;;;;47.00;21.90;;;;;;;-128.00;-1.00;-1.00;102540;1260;1047507;-82
2024/02/15 05:40:02;;;;;;;49.10;21.60;;;;;;;-128.00;-1.00;-1.00;102484;1262;1004293;-81
2024/02/15 05:42:29;;;;;;;39.10;21.20;;;;;;;-128.00;-1.00;-1.00;102228;1265;1003935;-86
2024/02/15 05:45:14;;;;;;;40.90;20.80;;;;;;;-128.00;-1.00;-1.00;102107;1260;1003928;-79
2024/02/15 05:47:41;;;;;;;41.70;20.80;;;;;;;-128.00;-1.00;-1.00;102477;1260;1058783;-79
2024/02/15 05:50:07;;;;;;;37.90;19.50;;;;;;;-128.00;-1.00;-1.00;102247;1260;1003949;-79
2024/02/15 05:52:35;;;;;;;35.70;18.80;;;;;;;-128.00;-1.00;-1.00;101938;1260;1004274;-85
2024/02/15 05:55:02;;;;;;;36.90;18.80;;;;;;;-128.00;-1.00;-1.00;102498;1262;1003964;-79
2024/02/15 05:57:29;;;;;;;33.20;18.00;;;;;;;-128.00;-1.00;-1.00;102512;1260;1003517;-85
2024/02/15 05:59:55;;;;;;;40.00;18.50;;;;;;;-128.00;-1.00;-1.00;102659;1259;1004647;-79
2024/02/15 06:02:22;;;;;;;41.40;19.60;;;;;;;-128.00;-1.00;-1.00;102626;1259;1004476;-79
2024/02/15 06:04:48;;;;;;;38.70;21.30;;;;;;;-128.00;-1.00;-1.00;102232;1259;1003915;-79
2024/02/15 06:07:15;;;;;;;38.70;19.90;;;;;;;-128.00;-1.00;-1.00;101865;1265;1003952;-79
2024/02/15 06:09:42;;;;;;;43.80;21.30;;;;;;;-128.00;-1.00;-1.00;102258;1265;1004440;-79
2024/02/15 06:12:09;;;;;;;36.10;19.30;;;;;;;-128.00;-1.00;-1.00;102255;1259;1004945;-85
2024/02/15 06:14:35;;;;;;;37.20;20.20;;;;;;;-128.00;-1.00;-1.00;102311;1265;1004681;-85
2024/02/15 06:17:02;;;;;;;40.20;19.80;;;;;;;-128.00;-1.00;-1.00;102812;1259;1004692;-85
2024/02/15 06:19:29;;;;;;;40.20;20.20;;;;;;;-128.00;-1.00;-1.00;102491;1259;1004328;-79
2024/02/15 06:21:56;;;;;;;34.40;19.30;;;;;;;-128.00;-1.00;-1.00;102267;1259;1004673;-79
2024/02/15 06:24:24;;;;;;;31.20;17.00;;;;;;;-128.00;-1.00;-1.00;102023;1259;1004418;-82
2024/02/15 06:26:53;;;;;;;32.00;18.30;;;;;;;-128.00;-1.00;-1.00;102501;1259;1003668;-82
2024/02/15 06:40:22;;;;;;;38.00;19.30;;;;;;;-128.00;-1.00;-1.00;102343;1265;1047978;-82
2024/02/15 06:42:49;;;;;;;38.40;21.90;;;;;;;-128.00;-1.00;-1.00;102523;1263;1003890;-82
2024/02/15 06:45:16;;;;;;;37.50;20.00;;;;;;;-128.00;-1.00;-1.00;102352;1259;1004227;-87
2024/02/15 06:47:45;;;;;;;44.50;21.30;;;;;;;-128.00;-1.00;-1.00;102422;1259;1004683;-87
2024/02/15 06:50:16;;;;;;;79.30;23.20;;;;;;;-128.00;-1.00;-1.00;102432;1259;1059512;-82
2024/02/15 06:52:43;;;;;;;52.30;22.60;;;;;;;-128.00;-1.00;-1.00;102529;1259;1046257;-82
2024/02/15 06:55:14;;;;;;;38.10;18.50;;;;;;;-128.00;-1.00;-1.00;102392;1259;1004807;-87
2024/02/15 06:57:41;;;;;;;36.60;17.50;;;;;;;-128.00;-1.00;-1.00;102472;1259;1065638;-82
2024/02/15 07:00:09;;;;;;;30.20;16.80;;;;;;;-128.00;-1.00;-1.00;102391;1260;1005313;-82
2024/02/15 07:02:36;;;;;;;35.20;17.90;;;;;;;-128.00;-1.00;-1.00;102542;1259;1004576;-81
2024/02/15 07:05:03;;;;;;;38.40;18.00;;;;;;;-128.00;-1.00;-1.00;102610;1265;1004454;-85
2024/02/15 07:07:29;;;;;;;35.90;18.20;;;;;;;-128.00;-1.00;-1.00;102491;1260;1004855;-85
2024/02/15 07:09:55;;;;;;;27.70;16.30;;;;;;;-128.00;-1.00;-1.00;102701;1263;1006024;-85
2024/02/15 07:12:22;;;;;;;34.50;17.90;;;;;;;-128.00;-1.00;-1.00;102562;1259;1004230;-79
2024/02/15 07:14:49;;;;;;;32.70;19.50;;;;;;;-128.00;-1.00;-1.00;102001;1259;1005268;-85
2024/02/15 07:17:15;;;;;;;36.20;19.40;;;;;;;-128.00;-1.00;-1.00;102257;1263;1004147;-85
2024/02/15 07:19:45;;;;;;;39.70;20.80;;;;;;;-128.00;-1.00;-1.00;102438;1259;1005494;-85
2024/02/15 07:22:11;;;;;;;35.60;20.50;;;;;;;-128.00;-1.00;-1.00;102272;1263;1063268;-85
2024/02/15 07:24:38;;;;;;;35.90;18.70;;;;;;;-128.00;-1.00;-1.00;102279;1263;1007577;-85
2024/02/15 07:27:05;;;;;;;41.30;21.30;;;;;;;-128.00;-1.00;-1.00;103734;1259;1004958;-85
2024/02/15 07:29:32;;;;;;;33.40;19.50;;;;;;;-128.00;-1.00;-1.00;102749;1260;1004794;-79
2024/02/15 07:32:04;;;;;;;32.10;17.20;;;;;;;-128.00;-1.00;-1.00;102224;1259;1004114;-79
2024/02/15 07:34:31;;;;;;;44.20;20.10;;;;;;;-128.00;-1.00;-1.00;102228;1264;1064947;-79
2024/02/15 07:36:57;;;;;;;40.70;19.00;;;;;;;-128.00;-1.00;-1.00;102641;1262;1004209;-79
2024/02/15 07:39:27;;;;;;;34.90;18.70;;;;;;;-128.00;-1.00;-1.00;102245;1259;1005039;-85
2024/02/15 07:42:00;;;;;;;33.00;17.60;;;;;;;-128.00;-1.00;-1.00;102894;1262;1045357;-79
2024/02/15 07:44:29;;;;;;;36.80;20.20;;;;;;;-128.00;-1.00;-1.00;102155;1261;1049791;-79
2024/02/15 07:46:56;;;;;;;37.70;20.80;;;;;;;-128.00;-1.00;-1.00;103569;1259;1064710;-79
2024/02/15 07:49:22;;;;;;;36.30;20.10;;;;;;;-128.00;-1.00;-1.00;102362;1259;1004751;-85
2024/02/15 07:51:52;;;;;;;35.10;19.50;;;;;;;-128.00;-1.00;-1.00;102851;1260;1003908;-85
2024/02/15 07:54:20;;;;;;;131.90;81.60;;;;;;;-128.00;-1.00;-1.00;102633;1260;1046214;-79
2024/02/15 07:56:51;;;;;;;124.70;73.50;;;;;;;-128.00;-1.00;-1.00;103260;1259;1003653;-80
2024/02/15 07:59:18;;;;;;;77.50;46.90;;;;;;;-128.00;-1.00;-1.00;105145;1259;1061862;-86
2024/02/15 08:01:49;;;;;;;50.30;31.40;;;;;;;-128.00;-1.00;-1.00;105060;1259;1005031;-86
2024/02/15 08:04:20;;;;;;;32.10;19.20;;;;;;;-128.00;-1.00;-1.00;103965;1260;1059224;-86
2024/02/15 08:06:48;;;;;;;31.10;16.50;;;;;;;-128.00;-1.00;-1.00;103458;1259;1046115;-79
2024/02/15 08:09:17;;;;;;;45.00;28.50;;;;;;;-128.00;-1.00;-1.00;105055;1259;1004081;-79
2024/02/15 08:11:44;;;;;;;40.90;19.30;;;;;;;-128.00;-1.00;-1.00;105131;1259;1062306;-79
2024/02/15 08:14:10;;;;;;;50.30;27.80;;;;;;;-128.00;-1.00;-1.00;105147;1259;1004634;-80
2024/02/15 08:16:37;;;;;;;46.30;29.30;;;;;;;-128.00;-1.00;-1.00;105098;1259;1004441;-87
2024/02/15 08:19:05;;;;;;;61.00;39.70;;;;;;;-128.00;-1.00;-1.00;103527;1259;1004143;-79
2024/02/15 08:21:37;;;;;;;45.70;26.00;;;;;;;-128.00;-1.00;-1.00;102895;1259;1004585;-79
2024/02/15 08:24:06;;;;;;;38.50;21.70;;;;;;;-128.00;-1.00;-1.00;102736;1265;1063505;-79
2024/02/15 08:26:33;;;;;;;103.00;67.40;;;;;;;-128.00;-1.00;-1.00;103212;1259;1058007;-79
2024/02/15 08:28:59;;;;;;;44.20;27.60;;;;;;;-128.00;-1.00;-1.00;105023;1259;1004653;-80
2024/02/15 08:31:26;;;;;;;36.60;23.60;;;;;;;-128.00;-1.00;-1.00;105096;1259;1003402;-79
2024/02/15 08:33:53;;;;;;;88.30;58.00;;;;;;;-128.00;-1.00;-1.00;105130;1259;1004898;-79
2024/02/15 08:36:20;;;;;;;65.50;43.50;;;;;;;-128.00;-1.00;-1.00;104969;1259;1004296;-79
2024/02/15 08:38:49;;;;;;;53.80;26.30;;;;;;;-128.00;-1.00;-1.00;105137;1259;1004318;-87
2024/02/15 08:41:18;;;;;;;;;;;;;;;-128.00;-1.00;-1.00;105090;1259;1058762;-85
2024/02/15 08:43:48;;;;;;;34.70;20.10;;;;;;;-128.00;-1.00;-1.00;103618;1259;1003771;-79
2024/02/15 08:46:14;;;;;;;517.30;234.60;;;;;;;-128.00;-1.00;-1.00;102165;1259;1047268;-86
2024/02/15 08:48:41;;;;;;;184.90;86.30;;;;;;;-128.00;-1.00;-1.00;102737;1259;1005487;-79
2024/02/15 08:51:08;;;;;;;211.10;92.00;;;;;;;-128.00;-1.00;-1.00;102697;1259;1003391;-79
2024/02/15 08:53:38;;;;;;;401.20;165.30;;;;;;;-128.00;-1.00;-1.00;102756;1259;1003850;-85
2024/02/15 08:56:06;;;;;;;101.50;46.80;;;;;;;-128.00;-1.00;-1.00;103301;1259;1045038;-79
2024/02/15 08:58:32;;;;;;;873.20;409.90;;;;;;;-128.00;-1.00;-1.00;105075;1260;1004796;-79
2024/02/15 09:00:59;;;;;;;576.30;274.40;;;;;;;-128.00;-1.00;-1.00;105104;1259;1003204;-79
2024/02/15 09:03:25;;;;;;;704.50;336.60;;;;;;;-128.00;-1.00;-1.00;105063;1259;1004634;-86
2024/02/15 09:05:52;;;;;;;429.10;192.10;;;;;;;-128.00;-1.00;-1.00;105128;1259;1004604;-86
2024/02/15 09:08:21;;;;;;;211.20;92.10;;;;;;;-128.00;-1.00;-1.00;105152;1259;1004322;-80
2024/02/15 09:10:49;;;;;;;565.00;302.70;;;;;;;-128.00;-1.00;-1.00;102991;1259;1047203;-79
2024/02/15 09:13:15;;;;;;;511.10;265.40;;;;;;;-128.00;-1.00;-1.00;102826;1259;1005110;-85
2024/02/15 09:15:42;;;;;;;207.70;109.00;;;;;;;-128.00;-1.00;-1.00;102917;1259;1004270;-86
2024/02/15 09:18:11;;;;;;;88.80;46.40;;;;;;;-128.00;-1.00;-1.00;105127;1259;1004571;-79
2024/02/15 09:20:44;;;;;;;58.30;31.90;;;;;;;-128.00;-1.00;-1.00;104993;1259;1047615;-86
2024/02/15 09:23:12;;;;;;;53.80;26.10;;;;;;;-128.00;-1.00;-1.00;105149;1259;1047087;-86
2024/02/15 09:25:38;;;;;;;79.80;37.70;;;;;;;-128.00;-1.00;-1.00;105069;1264;1004993;-86
2024/02/15 09:28:05;;;;;;;32.00;17.00;;;;;;;-128.00;-1.00;-1.00;105159;1259;1003528;-86
2024/02/15 09:30:31;;;;;;;166.50;86.70;;;;;;;-128.00;-1.00;-1.00;105118;1259;1004048;-79
2024/02/15 09:32:58;;;;;;;30.80;17.30;;;;;;;-128.00;-1.00;-1.00;103917;1260;1004827;-86
2024/02/15 09:35:24;;;;;;;18.90;11.00;;;;;;;-128.00;-1.00;-1.00;102957;1259;1005284;-85
2024/02/15 09:37:52;;;;;;;26.60;10.60;;;;;;;-128.00;-1.00;-1.00;102697;1259;1003609;-79
2024/02/15 09:40:19;;;;;;;19.90;11.10;;;;;;;-128.00;-1.00;-1.00;102834;1260;1003877;-79
2024/02/15 09:42:47;;;;;;;30.70;17.10;;;;;;;-128.00;-1.00;-1.00;102698;1259;1003561;-79
2024/02/15 09:45:14;;;;;;;17.90;8.30;;;;;;;-128.00;-1.00;-1.00;102681;1265;1004455;-79
2024/02/15 09:47:41;;;;;;;16.70;8.90;;;;;;;-128.00;-1.00;-1.00;104860;1259;1004484;-85
2024/02/15 09:50:14;;;;;;;22.80;10.80;;;;;;;-128.00;-1.00;-1.00;105123;1259;1003688;-80
2024/02/15 09:52:45;;;;;;;21.80;11.90;;;;;;;-128.00;-1.00;-1.00;105154;1259;1058407;-80
2024/02/15 09:55:14;;;;;;;28.00;14.80;;;;;;;-128.00;-1.00;-1.00;105125;1259;1058851;-80
2024/02/15 09:57:46;;;;;;;;;;;;;;;-128.00;-1.00;-1.00;105061;1259;1046488;-86
2024/02/15 10:00:13;;;;;;;30.80;14.90;;;;;;;-128.00;-1.00;-1.00;105154;1259;1047791;-80
2024/02/15 10:02:40;;;;;;;23.70;12.50;;;;;;;-128.00;-1.00;-1.00;104912;1259;1005031;-80
2024/02/15 10:05:11;;;;;;;16.20;9.80;;;;;;;-128.00;-1.00;-1.00;102766;1259;1004310;-79
2024/02/15 10:07:44;;;;;;;10.90;7.60;;;;;;;-128.00;-1.00;-1.00;102557;1260;1059167;-80
2024/02/15 10:10:26;;;;;;;23.30;9.60;;;;;;;-128.00;-1.00;-1.00;102871;1259;1046599;-81
2024/02/15 10:12:54;;;;;;;17.60;8.60;;;;;;;-128.00;-1.00;-1.00;102814;1259;1047303;-82
2024/02/15 10:15:31;;;;;;;22.60;12.20;;;;;;;-128.00;-1.00;-1.00;102767;1259;1004929;-80
2024/02/15 10:18:01;;;;;;;15.80;8.90;;;;;;;-128.00;-1.00;-1.00;102692;1265;1057569;-83
2024/02/15 10:20:28;;;;;;;15.90;8.90;;;;;;;-128.00;-1.00;-1.00;102811;1260;1061273;-81
2024/02/15 10:23:08;;;;;;;14.90;9.00;;;;;;;-128.00;-1.00;-1.00;102582;1259;1004173;-80
2024/02/15 10:25:35;;;;;;;17.50;9.40;;;;;;;-128.00;-1.00;-1.00;102746;1259;1047547;-82
2024/02/15 10:28:03;;;;;;;18.70;8.40;;;;;;;-128.00;-1.00;-1.00;102641;1259;1004819;-79
2024/02/15 10:30:32;;;;;;;14.20;7.80;;;;;;;-128.00;-1.00;-1.00;102142;1259;1004007;-84
2024/02/15 10:32:58;;;;;;;;;;;;;;;-128.00;-1.00;-1.00;103968;1259;1060700;-86
2024/02/15 10:35:25;;;;;;;15.90;6.80;;;;;;;-128.00;-1.00;-1.00;105105;1258;1003939;-85
2024/02/15 10:37:52;;;;;;;13.10;7.80;;;;;;;-128.00;-1.00;-1.00;105148;1259;1004198;-80
2024/02/15 10:40:20;;;;;;;13.70;7.60;;;;;;;-128.00;-1.00;-1.00;105103;1259;1004756;-86
2024/02/15 10:42:47;;;;;;;10.90;5.50;;;;;;;-128.00;-1.00;-1.00;105046;1259;1004358;-85
2024/02/15 10:45:14;;;;;;;12.00;6.30;;;;;;;-128.00;-1.00;-1.00;104416;1259;1004851;-80
2024/02/15 10:47:41;;;;;;;9.90;5.30;;;;;;;-128.00;-1.00;-1.00;102661;1259;1004682;-84
2024/02/15 10:50:07;;;;;;;20.20;6.10;;;;;;;-128.00;-1.00;-1.00;102823;1263;1004608;-80
2024/02/15 10:52:34;;;;;;;13.60;5.40;;;;;;;-128.00;-1.00;-1.00;103141;1260;1004549;-79
2024/02/15 10:55:08;;;;;;;9.40;4.60;;;;;;;-128.00;-1.00;-1.00;102194;1259;1003838;-80
2024/02/15 10:57:37;;;;;;;14.00;5.80;;;;;;;-128.00;-1.00;-1.00;102727;1262;1060007;-79
2024/02/15 11:00:10;;;;;;;9.60;4.40;;;;;;;-128.00;-1.00;-1.00;102914;1259;1047087;-80
2024/02/15 11:02:37;;;;;;;7.60;4.10;;;;;;;-128.00;-1.00;-1.00;102734;1259;1047475;-80
2024/02/15 11:05:11;;;;;;;5.00;2.70;;;;;;;-128.00;-1.00;-1.00;102836;1259;1004466;-79
2024/02/15 11:07:38;;;;;;;6.00;3.00;;;;;;;-128.00;-1.00;-1.00;102914;1265;1058097;-84
2024/02/15 11:10:10;;;;;;;7.70;3.80;;;;;;;-128.00;-1.00;-1.00;102925;1259;1004403;-84
2024/02/15 11:12:37;;;;;;;5.10;3.50;;;;;;;-128.00;-1.00;-1.00;102978;1259;1045583;-84
2024/02/15 11:15:06;;;;;;;9.80;3.20;;;;;;;-128.00;-1.00;-1.00;102797;1266;1004870;-80
2024/02/15 11:17:39;;;;;;;4.50;2.80;;;;;;;-128.00;-1.00;-1.00;104884;1260;1062540;-80